sensor_id;sensor_type;location;lat;lon;timestamp;P1;durP1;ratioP1;P2;durP2;ratioP2
35364;SDS011;21464;48.112;11.530;2023-06-26T00:00:42;7.85;;;7.15;;
35364;SDS011;21464;48.112;11.530;2023-06-26T00:03:08;7.88;;;7.22;;
35364;SDS011;21464;48.112;11.530;2023-06-26T00:05:35;8.45;;;7.22;;
35364;SDS011;21464;48.112;11.530;2023-06-26T00:08:01;7.90;;;7.20;;
35364;SDS011;21464;48.112;11.530;2023-06-26T00:10:27;7.78;;;7.05;;
35364;SDS011;21464;48.112;11.530;2023-06-26T00:12:54;9.23;;;6.93;;
35364;SDS011;21464;48.112;11.530;2023-06-26T00:15:20;7.90;;;7.18;;
35364;SDS011;21464;48.112;11.530;2023-06-26T00:17:46;7.60;;;6.90;;
35364;SDS011;21464;48.112;11.530;2023-06-26T00:20:12;7.75;;;7.03;;
35364;SDS011;21464;48.112;11.530;2023-06-26T00:22:42;7.57;;;6.90;;
35364;SDS011;21464;48.112;11.530;2023-06-26T00:25:08;7.30;;;6.68;;
35364;SDS011;21464;48.112;11.530;2023-06-26T00:27:34;8.18;;;7.47;;
35364;SDS011;21464;48.112;11.530;2023-06-26T00:30:01;8.75;;;7.85;;
35364;SDS011;21464;48.112;11.530;2023-06-26T00:32:27;10.15;;;8.50;;
35364;SDS011;21464;48.112;11.530;2023-06-26T00:34:53;11.30;;;8.73;;
35364;SDS011;21464;48.112;11.530;2023-06-26T00:37:19;10.05;;;8.82;;
35364;SDS011;21464;48.112;11.530;2023-06-26T00:39:47;15.93;;;9.85;;
35364;SDS011;21464;48.112;11.530;2023-06-26T00:42:13;11.18;;;9.55;;
35364;SDS011;21464;48.112;11.530;2023-06-26T00:44:39;11.98;;;10.07;;
35364;SDS011;21464;48.112;11.530;2023-06-26T00:47:06;11.60;;;9.77;;
35364;SDS011;21464;48.112;11.530;2023-06-26T00:49:32;10.50;;;9.02;;
35364;SDS011;21464;48.112;11.530;2023-06-26T00:51:58;9.52;;;8.25;;
35364;SDS011;21464;48.112;11.530;2023-06-26T00:54:25;8.52;;;7.72;;
35364;SDS011;21464;48.112;11.530;2023-06-26T00:56:51;9.48;;;8.43;;
35364;SDS011;21464;48.112;11.530;2023-06-26T00:59:18;9.48;;;8.43;;
35364;SDS011;21464;48.112;11.530;2023-06-26T01:01:44;10.55;;;7.78;;
35364;SDS011;21464;48.112;11.530;2023-06-26T01:04:10;8.48;;;7.60;;
35364;SDS011;21464;48.112;11.530;2023-06-26T01:06:43;9.52;;;7.95;;
35364;SDS011;21464;48.112;11.530;2023-06-26T01:09:17;8.40;;;7.60;;
35364;SDS011;21464;48.112;11.530;2023-06-26T01:11:44;8.70;;;7.65;;
35364;SDS011;21464;48.112;11.530;2023-06-26T01:14:11;9.40;;;8.40;;
35364;SDS011;21464;48.112;11.530;2023-06-26T01:16:38;8.90;;;7.80;;
35364;SDS011;21464;48.112;11.530;2023-06-26T01:19:09;9.75;;;8.75;;
35364;SDS011;21464;48.112;11.530;2023-06-26T01:21:39;10.13;;;8.52;;
35364;SDS011;21464;48.112;11.530;2023-06-26T01:24:09;8.98;;;8.07;;
35364;SDS011;21464;48.112;11.530;2023-06-26T01:26:48;10.77;;;8.68;;
35364;SDS011;21464;48.112;11.530;2023-06-26T01:29:16;8.77;;;7.88;;
35364;SDS011;21464;48.112;11.530;2023-06-26T01:31:44;9.57;;;8.02;;
35364;SDS011;21464;48.112;11.530;2023-06-26T01:34:15;8.02;;;7.22;;
35364;SDS011;21464;48.112;11.530;2023-06-26T01:36:43;8.80;;;8.00;;
35364;SDS011;21464;48.112;11.530;2023-06-26T01:39:10;8.57;;;7.68;;
35364;SDS011;21464;48.112;11.530;2023-06-26T01:41:38;9.75;;;8.38;;
35364;SDS011;21464;48.112;11.530;2023-06-26T01:51:53;10.73;;;9.07;;
35364;SDS011;21464;48.112;11.530;2023-06-26T01:54:23;9.77;;;8.55;;
35364;SDS011;21464;48.112;11.530;2023-06-26T01:56:52;10.35;;;9.25;;
35364;SDS011;21464;48.112;11.530;2023-06-26T01:59:19;9.15;;;8.30;;
35364;SDS011;21464;48.112;11.530;2023-06-26T02:01:46;9.05;;;8.05;;
35364;SDS011;21464;48.112;11.530;2023-06-26T02:04:13;9.88;;;8.63;;
35364;SDS011;21464;48.112;11.530;2023-06-26T02:06:39;9.85;;;8.85;;
35364;SDS011;21464;48.112;11.530;2023-06-26T02:09:06;11.10;;;8.35;;
35364;SDS011;21464;48.112;11.530;2023-06-26T02:11:33;10.25;;;8.45;;
35364;SDS011;21464;48.112;11.530;2023-06-26T02:14:00;11.18;;;8.48;;
35364;SDS011;21464;48.112;11.530;2023-06-26T02:16:26;9.20;;;8.30;;
35364;SDS011;21464;48.112;11.530;2023-06-26T02:18:52;9.13;;;8.25;;
35364;SDS011;21464;48.112;11.530;2023-06-26T02:21:18;9.80;;;8.48;;
35364;SDS011;21464;48.112;11.530;2023-06-26T02:23:44;9.45;;;8.18;;
35364;SDS011;21464;48.112;11.530;2023-06-26T02:26:11;9.25;;;8.35;;
35364;SDS011;21464;48.112;11.530;2023-06-26T02:28:37;8.55;;;7.68;;
35364;SDS011;21464;48.112;11.530;2023-06-26T02:31:03;9.35;;;8.45;;
35364;SDS011;21464;48.112;11.530;2023-06-26T02:33:32;9.38;;;8.48;;
35364;SDS011;21464;48.112;11.530;2023-06-26T02:35:58;10.00;;;8.98;;
35364;SDS011;21464;48.112;11.530;2023-06-26T02:38:24;10.52;;;9.52;;
35364;SDS011;21464;48.112;11.530;2023-06-26T02:40:51;11.35;;;10.15;;
35364;SDS011;21464;48.112;11.530;2023-06-26T02:43:17;10.25;;;9.15;;
35364;SDS011;21464;48.112;11.530;2023-06-26T02:45:44;10.77;;;9.52;;
35364;SDS011;21464;48.112;11.530;2023-06-26T02:48:10;10.77;;;9.68;;
35364;SDS011;21464;48.112;11.530;2023-06-26T02:50:37;10.65;;;9.55;;
35364;SDS011;21464;48.112;11.530;2023-06-26T02:53:06;10.45;;;9.23;;
35364;SDS011;21464;48.112;11.530;2023-06-26T02:55:34;10.30;;;8.40;;
35364;SDS011;21464;48.112;11.530;2023-06-26T02:58:00;9.00;;;7.93;;
35364;SDS011;21464;48.112;11.530;2023-06-26T03:00:27;9.40;;;8.38;;
35364;SDS011;21464;48.112;11.530;2023-06-26T03:02:56;10.38;;;8.75;;
35364;SDS011;21464;48.112;11.530;2023-06-26T03:05:23;9.60;;;8.50;;
35364;SDS011;21464;48.112;11.530;2023-06-26T03:07:50;9.20;;;8.30;;
35364;SDS011;21464;48.112;11.530;2023-06-26T03:10:16;8.55;;;7.70;;
35364;SDS011;21464;48.112;11.530;2023-06-26T03:12:43;9.63;;;8.20;;
35364;SDS011;21464;48.112;11.530;2023-06-26T03:15:10;8.80;;;8.00;;
35364;SDS011;21464;48.112;11.530;2023-06-26T03:17:38;9.30;;;8.10;;
35364;SDS011;21464;48.112;11.530;2023-06-26T03:20:08;9.98;;;8.48;;
35364;SDS011;21464;48.112;11.530;2023-06-26T03:22:43;9.77;;;8.50;;
35364;SDS011;21464;48.112;11.530;2023-06-26T03:25:11;12.25;;;8.98;;
35364;SDS011;21464;48.112;11.530;2023-06-26T03:27:37;11.68;;;9.70;;
35364;SDS011;21464;48.112;11.530;2023-06-26T03:30:04;12.35;;;10.73;;
35364;SDS011;21464;48.112;11.530;2023-06-26T03:32:34;11.65;;;10.10;;
35364;SDS011;21464;48.112;11.530;2023-06-26T03:35:00;11.07;;;9.90;;
35364;SDS011;21464;48.112;11.530;2023-06-26T03:37:29;10.73;;;9.35;;
35364;SDS011;21464;48.112;11.530;2023-06-26T03:39:55;10.15;;;9.18;;
35364;SDS011;21464;48.112;11.530;2023-06-26T03:42:22;9.70;;;8.40;;
35364;SDS011;21464;48.112;11.530;2023-06-26T03:44:48;10.00;;;9.00;;
35364;SDS011;21464;48.112;11.530;2023-06-26T03:47:17;9.60;;;8.70;;
35364;SDS011;21464;48.112;11.530;2023-06-26T03:49:43;13.52;;;10.57;;
35364;SDS011;21464;48.112;11.530;2023-06-26T03:52:10;11.23;;;10.10;;
35364;SDS011;21464;48.112;11.530;2023-06-26T03:54:38;10.43;;;9.32;;
35364;SDS011;21464;48.112;11.530;2023-06-26T03:57:04;9.57;;;8.38;;
35364;SDS011;21464;48.112;11.530;2023-06-26T03:59:31;10.90;;;9.80;;
35364;SDS011;21464;48.112;11.530;2023-06-26T04:01:57;10.52;;;9.43;;
35364;SDS011;21464;48.112;11.530;2023-06-26T04:04:24;12.10;;;10.80;;
35364;SDS011;21464;48.112;11.530;2023-06-26T04:06:50;10.73;;;9.63;;
35364;SDS011;21464;48.112;11.530;2023-06-26T04:09:17;13.70;;;10.63;;
35364;SDS011;21464;48.112;11.530;2023-06-26T04:11:44;11.63;;;9.90;;
35364;SDS011;21464;48.112;11.530;2023-06-26T04:14:10;12.23;;;10.85;;
35364;SDS011;21464;48.112;11.530;2023-06-26T04:16:37;14.98;;;11.55;;
35364;SDS011;21464;48.112;11.530;2023-06-26T04:19:04;11.23;;;9.48;;
35364;SDS011;21464;48.112;11.530;2023-06-26T04:21:30;18.77;;;14.73;;
35364;SDS011;21464;48.112;11.530;2023-06-26T04:23:57;20.05;;;15.80;;
35364;SDS011;21464;48.112;11.530;2023-06-26T04:26:23;12.30;;;10.40;;
35364;SDS011;21464;48.112;11.530;2023-06-26T04:28:49;12.80;;;10.82;;
35364;SDS011;21464;48.112;11.530;2023-06-26T04:31:15;12.60;;;10.68;;
35364;SDS011;21464;48.112;11.530;2023-06-26T04:33:41;10.50;;;9.50;;
35364;SDS011;21464;48.112;11.530;2023-06-26T04:36:08;12.18;;;10.30;;
35364;SDS011;21464;48.112;11.530;2023-06-26T04:38:34;9.77;;;8.23;;
35364;SDS011;21464;48.112;11.530;2023-06-26T04:41:01;9.60;;;8.60;;
35364;SDS011;21464;48.112;11.530;2023-06-26T04:43:27;10.25;;;8.88;;
35364;SDS011;21464;48.112;11.530;2023-06-26T04:45:53;10.02;;;8.27;;
35364;SDS011;21464;48.112;11.530;2023-06-26T04:48:20;9.20;;;8.30;;
35364;SDS011;21464;48.112;11.530;2023-06-26T04:50:46;10.30;;;8.93;;
35364;SDS011;21464;48.112;11.530;2023-06-26T04:53:20;9.77;;;8.77;;
35364;SDS011;21464;48.112;11.530;2023-06-26T04:55:47;11.30;;;10.20;;
35364;SDS011;21464;48.112;11.530;2023-06-26T04:58:13;10.13;;;9.13;;
35364;SDS011;21464;48.112;11.530;2023-06-26T05:00:40;10.95;;;9.95;;
35364;SDS011;21464;48.112;11.530;2023-06-26T05:03:11;11.02;;;9.02;;
35364;SDS011;21464;48.112;11.530;2023-06-26T05:05:38;9.75;;;8.85;;
35364;SDS011;21464;48.112;11.530;2023-06-26T05:08:24;10.70;;;9.63;;
35364;SDS011;21464;48.112;11.530;2023-06-26T05:10:52;10.52;;;9.38;;
35364;SDS011;21464;48.112;11.530;2023-06-26T05:13:24;10.20;;;9.20;;
35364;SDS011;21464;48.112;11.530;2023-06-26T05:15:51;9.75;;;8.70;;
35364;SDS011;21464;48.112;11.530;2023-06-26T05:18:18;9.68;;;8.77;;
35364;SDS011;21464;48.112;11.530;2023-06-26T05:20:45;15.50;;;9.88;;
35364;SDS011;21464;48.112;11.530;2023-06-26T05:23:12;9.80;;;8.90;;
35364;SDS011;21464;48.112;11.530;2023-06-26T05:25:38;9.80;;;8.80;;
35364;SDS011;21464;48.112;11.530;2023-06-26T05:28:05;9.35;;;8.55;;
35364;SDS011;21464;48.112;11.530;2023-06-26T05:30:32;10.38;;;9.25;;
35364;SDS011;21464;48.112;11.530;2023-06-26T05:33:01;10.05;;;9.02;;
35364;SDS011;21464;48.112;11.530;2023-06-26T05:35:29;12.35;;;11.15;;
35364;SDS011;21464;48.112;11.530;2023-06-26T05:37:56;9.80;;;8.82;;
35364;SDS011;21464;48.112;11.530;2023-06-26T05:40:23;11.07;;;8.13;;
35364;SDS011;21464;48.112;11.530;2023-06-26T05:42:50;10.23;;;8.82;;
35364;SDS011;21464;48.112;11.530;2023-06-26T05:45:16;10.70;;;8.73;;
35364;SDS011;21464;48.112;11.530;2023-06-26T05:47:43;8.90;;;8.00;;
35364;SDS011;21464;48.112;11.530;2023-06-26T05:50:09;9.40;;;8.50;;
35364;SDS011;21464;48.112;11.530;2023-06-26T05:52:36;8.30;;;7.47;;
35364;SDS011;21464;48.112;11.530;2023-06-26T05:55:04;8.65;;;7.82;;
35364;SDS011;21464;48.112;11.530;2023-06-26T05:57:31;8.70;;;7.82;;
35364;SDS011;21464;48.112;11.530;2023-06-26T05:59:58;9.07;;;8.27;;
35364;SDS011;21464;48.112;11.530;2023-06-26T06:02:24;9.07;;;8.27;;
35364;SDS011;21464;48.112;11.530;2023-06-26T06:04:50;8.85;;;7.95;;
35364;SDS011;21464;48.112;11.530;2023-06-26T06:07:16;9.52;;;8.52;;
35364;SDS011;21464;48.112;11.530;2023-06-26T06:09:43;9.13;;;7.65;;
35364;SDS011;21464;48.112;11.530;2023-06-26T06:12:09;9.50;;;8.43;;
35364;SDS011;21464;48.112;11.530;2023-06-26T06:14:35;8.02;;;7.03;;
35364;SDS011;21464;48.112;11.530;2023-06-26T06:17:01;9.35;;;7.93;;
35364;SDS011;21464;48.112;11.530;2023-06-26T06:19:28;8.32;;;7.53;;
35364;SDS011;21464;48.112;11.530;2023-06-26T06:21:54;8.70;;;7.13;;
35364;SDS011;21464;48.112;11.530;2023-06-26T06:24:20;8.20;;;7.38;;
35364;SDS011;21464;48.112;11.530;2023-06-26T06:26:47;8.02;;;7.15;;
35364;SDS011;21464;48.112;11.530;2023-06-26T06:29:13;7.70;;;6.95;;
35364;SDS011;21464;48.112;11.530;2023-06-26T06:31:39;7.93;;;7.22;;
35364;SDS011;21464;48.112;11.530;2023-06-26T06:34:05;7.50;;;6.80;;
35364;SDS011;21464;48.112;11.530;2023-06-26T06:36:31;8.40;;;7.10;;
35364;SDS011;21464;48.112;11.530;2023-06-26T06:38:58;7.40;;;6.70;;
35364;SDS011;21464;48.112;11.530;2023-06-26T06:41:24;6.90;;;6.32;;
35364;SDS011;21464;48.112;11.530;2023-06-26T06:43:50;7.13;;;6.43;;
35364;SDS011;21464;48.112;11.530;2023-06-26T06:46:17;8.07;;;7.35;;
35364;SDS011;21464;48.112;11.530;2023-06-26T06:48:43;7.70;;;6.90;;
35364;SDS011;21464;48.112;11.530;2023-06-26T06:51:09;7.00;;;6.40;;
35364;SDS011;21464;48.112;11.530;2023-06-26T06:53:35;7.43;;;6.50;;
35364;SDS011;21464;48.112;11.530;2023-06-26T06:56:01;7.28;;;6.50;;
35364;SDS011;21464;48.112;11.530;2023-06-26T06:58:28;7.55;;;6.85;;
35364;SDS011;21464;48.112;11.530;2023-06-26T07:00:54;7.00;;;6.40;;
35364;SDS011;21464;48.112;11.530;2023-06-26T07:03:21;7.70;;;6.93;;
35364;SDS011;21464;48.112;11.530;2023-06-26T07:05:48;7.63;;;6.93;;
35364;SDS011;21464;48.112;11.530;2023-06-26T07:08:14;7.60;;;6.80;;
35364;SDS011;21464;48.112;11.530;2023-06-26T07:10:40;7.85;;;7.13;;
35364;SDS011;21464;48.112;11.530;2023-06-26T07:13:06;7.70;;;7.00;;
35364;SDS011;21464;48.112;11.530;2023-06-26T07:15:32;8.10;;;7.30;;
35364;SDS011;21464;48.112;11.530;2023-06-26T07:17:59;7.60;;;6.80;;
35364;SDS011;21464;48.112;11.530;2023-06-26T07:20:25;7.95;;;7.15;;
35364;SDS011;21464;48.112;11.530;2023-06-26T07:22:51;8.43;;;7.53;;
35364;SDS011;21464;48.112;11.530;2023-06-26T07:25:18;7.93;;;7.20;;
35364;SDS011;21464;48.112;11.530;2023-06-26T07:27:44;7.85;;;7.15;;
35364;SDS011;21464;48.112;11.530;2023-06-26T07:30:11;7.43;;;6.78;;
35364;SDS011;21464;48.112;11.530;2023-06-26T07:32:37;7.53;;;6.90;;
35364;SDS011;21464;48.112;11.530;2023-06-26T07:35:04;8.02;;;7.22;;
35364;SDS011;21464;48.112;11.530;2023-06-26T07:37:30;8.88;;;7.25;;
35364;SDS011;21464;48.112;11.530;2023-06-26T07:39:57;8.30;;;7.50;;
35364;SDS011;21464;48.112;11.530;2023-06-26T07:42:23;9.95;;;7.03;;
35364;SDS011;21464;48.112;11.530;2023-06-26T07:44:49;7.32;;;6.72;;
35364;SDS011;21464;48.112;11.530;2023-06-26T07:47:15;7.57;;;6.88;;
35364;SDS011;21464;48.112;11.530;2023-06-26T07:49:42;7.70;;;7.00;;
35364;SDS011;21464;48.112;11.530;2023-06-26T07:52:08;7.47;;;6.88;;
35364;SDS011;21464;48.112;11.530;2023-06-26T07:54:37;7.97;;;7.35;;
35364;SDS011;21464;48.112;11.530;2023-06-26T07:57:04;7.65;;;7.05;;
35364;SDS011;21464;48.112;11.530;2023-06-26T07:59:34;7.47;;;6.78;;
35364;SDS011;21464;48.112;11.530;2023-06-26T08:02:00;8.00;;;7.20;;
35364;SDS011;21464;48.112;11.530;2023-06-26T08:04:27;7.43;;;6.75;;
35364;SDS011;21464;48.112;11.530;2023-06-26T08:06:56;7.80;;;7.05;;
35364;SDS011;21464;48.112;11.530;2023-06-26T08:09:23;7.60;;;6.90;;
35364;SDS011;21464;48.112;11.530;2023-06-26T08:11:51;7.70;;;7.00;;
35364;SDS011;21464;48.112;11.530;2023-06-26T08:14:17;7.88;;;6.82;;
35364;SDS011;21464;48.112;11.530;2023-06-26T08:16:44;8.73;;;7.95;;
35364;SDS011;21464;48.112;11.530;2023-06-26T08:19:11;7.35;;;6.75;;
35364;SDS011;21464;48.112;11.530;2023-06-26T08:21:38;7.13;;;6.43;;
35364;SDS011;21464;48.112;11.530;2023-06-26T08:24:05;8.32;;;7.22;;
35364;SDS011;21464;48.112;11.530;2023-06-26T08:26:32;8.20;;;7.43;;
35364;SDS011;21464;48.112;11.530;2023-06-26T08:28:58;9.60;;;7.47;;
35364;SDS011;21464;48.112;11.530;2023-06-26T08:31:24;7.78;;;7.00;;
35364;SDS011;21464;48.112;11.530;2023-06-26T08:33:50;7.55;;;6.85;;
35364;SDS011;21464;48.112;11.530;2023-06-26T08:36:17;7.10;;;6.50;;
35364;SDS011;21464;48.112;11.530;2023-06-26T08:38:43;7.28;;;6.68;;
35364;SDS011;21464;48.112;11.530;2023-06-26T08:41:09;7.85;;;6.85;;
35364;SDS011;21464;48.112;11.530;2023-06-26T08:43:35;7.70;;;6.82;;
35364;SDS011;21464;48.112;11.530;2023-06-26T08:46:02;8.10;;;7.30;;
35364;SDS011;21464;48.112;11.530;2023-06-26T08:48:29;7.25;;;6.65;;
35364;SDS011;21464;48.112;11.530;2023-06-26T08:51:00;7.22;;;6.53;;
35364;SDS011;21464;48.112;11.530;2023-06-26T08:56:13;6.43;;;5.82;;
35364;SDS011;21464;48.112;11.530;2023-06-26T08:58:41;6.30;;;5.78;;
35364;SDS011;21464;48.112;11.530;2023-06-26T09:01:07;6.43;;;5.93;;
35364;SDS011;21464;48.112;11.530;2023-06-26T09:03:36;6.85;;;6.18;;
35364;SDS011;21464;48.112;11.530;2023-06-26T09:06:02;6.72;;;6.13;;
35364;SDS011;21464;48.112;11.530;2023-06-26T09:08:29;7.43;;;6.72;;
35364;SDS011;21464;48.112;11.530;2023-06-26T09:10:55;7.13;;;6.53;;
35364;SDS011;21464;48.112;11.530;2023-06-26T09:13:21;7.10;;;6.53;;
35364;SDS011;21464;48.112;11.530;2023-06-26T09:15:48;6.55;;;5.95;;
35364;SDS011;21464;48.112;11.530;2023-06-26T09:18:16;6.90;;;6.28;;
35364;SDS011;21464;48.112;11.530;2023-06-26T09:20:44;6.93;;;6.32;;
35364;SDS011;21464;48.112;11.530;2023-06-26T09:23:10;6.60;;;6.10;;
35364;SDS011;21464;48.112;11.530;2023-06-26T09:25:37;7.32;;;6.28;;
35364;SDS011;21464;48.112;11.530;2023-06-26T09:28:05;8.35;;;7.35;;
35364;SDS011;21464;48.112;11.530;2023-06-26T09:30:32;6.72;;;5.93;;
35364;SDS011;21464;48.112;11.530;2023-06-26T09:33:17;6.45;;;5.85;;
35364;SDS011;21464;48.112;11.530;2023-06-26T09:35:46;5.95;;;5.43;;
35364;SDS011;21464;48.112;11.530;2023-06-26T09:38:13;5.32;;;4.93;;
35364;SDS011;21464;48.112;11.530;2023-06-26T09:40:40;6.15;;;5.65;;
35364;SDS011;21464;48.112;11.530;2023-06-26T09:43:07;6.07;;;5.50;;
35364;SDS011;21464;48.112;11.530;2023-06-26T09:45:35;5.43;;;5.03;;
35364;SDS011;21464;48.112;11.530;2023-06-26T09:48:05;5.43;;;5.03;;
35364;SDS011;21464;48.112;11.530;2023-06-26T09:50:34;5.10;;;4.70;;
35364;SDS011;21464;48.112;11.530;2023-06-26T09:53:07;5.72;;;4.65;;
35364;SDS011;21464;48.112;11.530;2023-06-26T09:55:34;4.93;;;4.53;;
35364;SDS011;21464;48.112;11.530;2023-06-26T09:58:02;5.70;;;5.20;;
35364;SDS011;21464;48.112;11.530;2023-06-26T10:00:30;5.95;;;5.03;;
35364;SDS011;21464;48.112;11.530;2023-06-26T10:02:57;5.38;;;4.85;;
35364;SDS011;21464;48.112;11.530;2023-06-26T10:05:23;6.55;;;4.93;;
35364;SDS011;21464;48.112;11.530;2023-06-26T10:07:50;5.25;;;4.85;;
35364;SDS011;21464;48.112;11.530;2023-06-26T10:10:17;5.50;;;5.00;;
35364;SDS011;21464;48.112;11.530;2023-06-26T10:12:43;5.00;;;4.50;;
35364;SDS011;21464;48.112;11.530;2023-06-26T10:15:14;4.95;;;4.55;;
35364;SDS011;21464;48.112;11.530;2023-06-26T10:17:43;5.68;;;5.18;;
35364;SDS011;21464;48.112;11.530;2023-06-26T10:20:09;5.03;;;4.53;;
35364;SDS011;21464;48.112;11.530;2023-06-26T10:22:41;5.07;;;4.65;;
35364;SDS011;21464;48.112;11.530;2023-06-26T10:25:10;5.18;;;4.78;;
35364;SDS011;21464;48.112;11.530;2023-06-26T10:27:38;5.07;;;4.35;;
35364;SDS011;21464;48.112;11.530;2023-06-26T10:30:09;4.70;;;4.30;;
35364;SDS011;21464;48.112;11.530;2023-06-26T10:32:39;4.97;;;4.55;;
35364;SDS011;21464;48.112;11.530;2023-06-26T10:35:06;5.60;;;5.10;;
35364;SDS011;21464;48.112;11.530;2023-06-26T10:40:11;5.30;;;4.90;;
35364;SDS011;21464;48.112;11.530;2023-06-26T10:42:39;5.55;;;5.10;;
35364;SDS011;21464;48.112;11.530;2023-06-26T10:45:09;5.70;;;5.15;;
35364;SDS011;21464;48.112;11.530;2023-06-26T10:47:45;5.93;;;5.22;;
35364;SDS011;21464;48.112;11.530;2023-06-26T10:52:43;5.40;;;4.90;;
35364;SDS011;21464;48.112;11.530;2023-06-26T10:55:10;4.90;;;4.50;;
35364;SDS011;21464;48.112;11.530;2023-06-26T10:57:36;5.60;;;5.20;;
35364;SDS011;21464;48.112;11.530;2023-06-26T11:00:11;4.65;;;4.35;;
35364;SDS011;21464;48.112;11.530;2023-06-26T11:02:52;4.95;;;4.55;;
35364;SDS011;21464;48.112;11.530;2023-06-26T11:05:26;5.60;;;5.20;;
35364;SDS011;21464;48.112;11.530;2023-06-26T11:08:06;5.53;;;5.13;;
35364;SDS011;21464;48.112;11.530;2023-06-26T11:13:16;5.10;;;4.70;;
35364;SDS011;21464;48.112;11.530;2023-06-26T11:15:43;5.60;;;5.10;;
35364;SDS011;21464;48.112;11.530;2023-06-26T11:18:12;5.47;;;4.97;;
35364;SDS011;21464;48.112;11.530;2023-06-26T11:20:39;4.85;;;4.13;;
35364;SDS011;21464;48.112;11.530;2023-06-26T11:23:07;5.47;;;5.07;;
35364;SDS011;21464;48.112;11.530;2023-06-26T11:25:34;5.65;;;5.25;;
35364;SDS011;21464;48.112;11.530;2023-06-26T11:28:02;5.93;;;5.40;;
35364;SDS011;21464;48.112;11.530;2023-06-26T11:30:30;6.10;;;5.50;;
35364;SDS011;21464;48.112;11.530;2023-06-26T11:33:07;5.53;;;5.03;;
35364;SDS011;21464;48.112;11.530;2023-06-26T11:35:35;5.57;;;5.07;;
35364;SDS011;21464;48.112;11.530;2023-06-26T11:38:02;5.90;;;5.45;;
35364;SDS011;21464;48.112;11.530;2023-06-26T11:40:35;5.60;;;5.13;;
35364;SDS011;21464;48.112;11.530;2023-06-26T11:43:02;6.20;;;5.63;;
35364;SDS011;21464;48.112;11.530;2023-06-26T11:45:30;6.28;;;5.72;;
35364;SDS011;21464;48.112;11.530;2023-06-26T11:47:57;6.63;;;6.03;;
35364;SDS011;21464;48.112;11.530;2023-06-26T11:50:24;6.05;;;5.55;;
35364;SDS011;21464;48.112;11.530;2023-06-26T11:52:57;6.82;;;6.22;;
35364;SDS011;21464;48.112;11.530;2023-06-26T11:55:25;7.25;;;6.55;;
35364;SDS011;21464;48.112;11.530;2023-06-26T11:57:55;6.30;;;5.68;;
35364;SDS011;21464;48.112;11.530;2023-06-26T12:00:22;9.20;;;5.80;;
35364;SDS011;21464;48.112;11.530;2023-06-26T12:02:49;6.60;;;5.80;;
35364;SDS011;21464;48.112;11.530;2023-06-26T12:05:16;6.75;;;6.15;;
35364;SDS011;21464;48.112;11.530;2023-06-26T12:07:43;7.28;;;6.53;;
35364;SDS011;21464;48.112;11.530;2023-06-26T12:10:10;5.90;;;5.30;;
35364;SDS011;21464;48.112;11.530;2023-06-26T12:12:37;6.22;;;5.72;;
35364;SDS011;21464;48.112;11.530;2023-06-26T12:15:05;6.00;;;5.50;;
35364;SDS011;21464;48.112;11.530;2023-06-26T12:17:36;6.35;;;5.85;;
35364;SDS011;21464;48.112;11.530;2023-06-26T12:20:03;5.93;;;5.43;;
35364;SDS011;21464;48.112;11.530;2023-06-26T12:22:34;6.40;;;5.78;;
35364;SDS011;21464;48.112;11.530;2023-06-26T12:25:01;6.20;;;5.60;;
35364;SDS011;21464;48.112;11.530;2023-06-26T12:27:28;6.10;;;5.60;;
35364;SDS011;21464;48.112;11.530;2023-06-26T12:29:55;6.40;;;5.82;;
35364;SDS011;21464;48.112;11.530;2023-06-26T12:32:22;6.75;;;6.05;;
35364;SDS011;21464;48.112;11.530;2023-06-26T12:34:50;6.35;;;5.85;;
35364;SDS011;21464;48.112;11.530;2023-06-26T12:37:16;6.07;;;5.53;;
35364;SDS011;21464;48.112;11.530;2023-06-26T12:39:49;6.22;;;5.65;;
35364;SDS011;21464;48.112;11.530;2023-06-26T12:42:18;6.50;;;5.90;;
35364;SDS011;21464;48.112;11.530;2023-06-26T12:44:46;6.78;;;6.15;;
35364;SDS011;21464;48.112;11.530;2023-06-26T12:47:13;6.60;;;6.00;;
35364;SDS011;21464;48.112;11.530;2023-06-26T12:49:41;6.45;;;5.95;;
35364;SDS011;21464;48.112;11.530;2023-06-26T12:52:09;6.63;;;6.13;;
35364;SDS011;21464;48.112;11.530;2023-06-26T12:54:38;6.30;;;5.80;;
35364;SDS011;21464;48.112;11.530;2023-06-26T12:57:05;8.13;;;5.93;;
35364;SDS011;21464;48.112;11.530;2023-06-26T12:59:32;7.43;;;5.90;;
35364;SDS011;21464;48.112;11.530;2023-06-26T13:01:59;7.43;;;6.70;;
35364;SDS011;21464;48.112;11.530;2023-06-26T13:04:25;7.10;;;6.20;;
35364;SDS011;21464;48.112;11.530;2023-06-26T13:06:52;7.03;;;6.45;;
35364;SDS011;21464;48.112;11.530;2023-06-26T13:09:21;6.25;;;5.75;;
35364;SDS011;21464;48.112;11.530;2023-06-26T13:11:48;7.07;;;6.47;;
35364;SDS011;21464;48.112;11.530;2023-06-26T13:14:14;6.20;;;5.70;;
35364;SDS011;21464;48.112;11.530;2023-06-26T13:16:40;6.47;;;5.97;;
35364;SDS011;21464;48.112;11.530;2023-06-26T13:19:07;7.00;;;6.35;;
35364;SDS011;21464;48.112;11.530;2023-06-26T13:21:34;6.97;;;6.47;;
35364;SDS011;21464;48.112;11.530;2023-06-26T13:24:01;6.30;;;5.80;;
35364;SDS011;21464;48.112;11.530;2023-06-26T13:26:27;7.13;;;6.53;;
35364;SDS011;21464;48.112;11.530;2023-06-26T13:28:55;6.85;;;6.25;;
35364;SDS011;21464;48.112;11.530;2023-06-26T13:31:21;6.72;;;6.13;;
35364;SDS011;21464;48.112;11.530;2023-06-26T13:33:48;7.32;;;6.45;;
35364;SDS011;21464;48.112;11.530;2023-06-26T13:36:20;7.10;;;6.50;;
35364;SDS011;21464;48.112;11.530;2023-06-26T13:38:47;6.53;;;5.97;;
35364;SDS011;21464;48.112;11.530;2023-06-26T13:41:16;6.80;;;6.30;;
35364;SDS011;21464;48.112;11.530;2023-06-26T13:43:42;7.53;;;6.18;;
35364;SDS011;21464;48.112;11.530;2023-06-26T13:46:08;6.50;;;5.95;;
35364;SDS011;21464;48.112;11.530;2023-06-26T13:48:34;7.38;;;6.75;;
35364;SDS011;21464;48.112;11.530;2023-06-26T13:51:00;6.68;;;6.07;;
35364;SDS011;21464;48.112;11.530;2023-06-26T13:53:27;7.25;;;6.55;;
35364;SDS011;21464;48.112;11.530;2023-06-26T13:55:53;7.15;;;6.55;;
35364;SDS011;21464;48.112;11.530;2023-06-26T13:58:19;6.25;;;5.75;;
35364;SDS011;21464;48.112;11.530;2023-06-26T14:00:50;7.40;;;6.80;;
35364;SDS011;21464;48.112;11.530;2023-06-26T14:03:16;7.35;;;6.28;;
35364;SDS011;21464;48.112;11.530;2023-06-26T14:05:43;9.20;;;6.55;;
35364;SDS011;21464;48.112;11.530;2023-06-26T14:08:09;6.93;;;6.32;;
35364;SDS011;21464;48.112;11.530;2023-06-26T14:10:36;6.78;;;6.07;;
35364;SDS011;21464;48.112;11.530;2023-06-26T14:13:03;6.93;;;6.20;;
35364;SDS011;21464;48.112;11.530;2023-06-26T14:15:30;6.85;;;6.15;;
35364;SDS011;21464;48.112;11.530;2023-06-26T14:17:58;6.80;;;6.20;;
35364;SDS011;21464;48.112;11.530;2023-06-26T14:20:25;6.65;;;6.20;;
35364;SDS011;21464;48.112;11.530;2023-06-26T14:22:51;6.40;;;5.90;;
35364;SDS011;21464;48.112;11.530;2023-06-26T14:25:17;6.50;;;6.00;;
35364;SDS011;21464;48.112;11.530;2023-06-26T14:27:43;6.57;;;5.97;;
35364;SDS011;21464;48.112;11.530;2023-06-26T14:30:10;6.93;;;6.25;;
35364;SDS011;21464;48.112;11.530;2023-06-26T14:32:36;6.25;;;5.65;;
35364;SDS011;21464;48.112;11.530;2023-06-26T14:35:03;6.38;;;5.88;;
35364;SDS011;21464;48.112;11.530;2023-06-26T14:37:32;7.07;;;6.50;;
35364;SDS011;21464;48.112;11.530;2023-06-26T14:39:58;7.03;;;6.50;;
35364;SDS011;21464;48.112;11.530;2023-06-26T14:42:25;6.50;;;5.85;;
35364;SDS011;21464;48.112;11.530;2023-06-26T14:44:51;13.18;;;12.05;;
35364;SDS011;21464;48.112;11.530;2023-06-26T14:47:18;6.47;;;5.97;;
35364;SDS011;21464;48.112;11.530;2023-06-26T14:49:44;6.47;;;5.97;;